sensor_id;sensor_type;location;lat;lon;timestamp;temperature;humidity
8269;DHT22;4174;48.304;16.364;2023-02-15T00:00:37;6.10;99.90
8269;DHT22;4174;48.304;16.364;2023-02-15T00:06:41;6.00;99.90
8269;DHT22;4174;48.304;16.364;2023-02-15T00:12:45;6.10;99.90
8269;DHT22;4174;48.304;16.364;2023-02-15T00:18:51;6.00;99.90
8269;DHT22;4174;48.304;16.364;2023-02-15T00:24:54;6.00;99.90
8269;DHT22;4174;48.304;16.364;2023-02-15T00:31:05;6.10;99.90
8269;DHT22;4174;48.304;16.364;2023-02-15T00:37:08;6.10;99.90
8269;DHT22;4174;48.304;16.364;2023-02-15T00:43:12;6.10;99.90
8269;DHT22;4174;48.304;16.364;2023-02-15T00:49:15;6.20;99.90
8269;DHT22;4174;48.304;16.364;2023-02-15T00:55:20;6.20;99.90
8269;DHT22;4174;48.304;16.364;2023-02-15T01:01:24;6.20;99.90
8269;DHT22;4174;48.304;16.364;2023-02-15T01:07:27;6.20;99.90
8269;DHT22;4174;48.304;16.364;2023-02-15T01:13:31;6.20;99.90
8269;DHT22;4174;48.304;16.364;2023-02-15T01:19:35;6.20;99.90
8269;DHT22;4174;48.304;16.364;2023-02-15T01:25:39;6.10;99.90
8269;DHT22;4174;48.304;16.364;2023-02-15T01:31:42;6.00;99.90
8269;DHT22;4174;48.304;16.364;2023-02-15T01:37:47;6.10;99.90
8269;DHT22;4174;48.304;16.364;2023-02-15T01:43:57;6.10;99.90
8269;DHT22;4174;48.304;16.364;2023-02-15T01:50:08;6.10;99.90
8269;DHT22;4174;48.304;16.364;2023-02-15T01:56:25;6.10;99.90
8269;DHT22;4174;48.304;16.364;2023-02-15T02:02:26;6.10;99.90
8269;DHT22;4174;48.304;16.364;2023-02-15T02:08:29;6.10;99.90
8269;DHT22;4174;48.304;16.364;2023-02-15T02:14:32;6.10;99.90
8269;DHT22;4174;48.304;16.364;2023-02-15T02:20:44;6.00;99.90
8269;DHT22;4174;48.304;16.364;2023-02-15T02:27:21;6.00;99.90
8269;DHT22;4174;48.304;16.364;2023-02-15T02:46:21;5.90;99.90
8269;DHT22;4174;48.304;16.364;2023-02-15T02:52:37;5.80;99.90
8269;DHT22;4174;48.304;16.364;2023-02-15T02:58:45;5.80;99.90
8269;DHT22;4174;48.304;16.364;2023-02-15T03:04:46;5.80;99.90
8269;DHT22;4174;48.304;16.364;2023-02-15T03:10:48;5.70;99.90
8269;DHT22;4174;48.304;16.364;2023-02-15T03:16:52;5.70;99.90
8269;DHT22;4174;48.304;16.364;2023-02-15T03:22:58;5.70;99.90
8269;DHT22;4174;48.304;16.364;2023-02-15T03:28:59;5.60;99.90
8269;DHT22;4174;48.304;16.364;2023-02-15T03:35:01;5.60;99.90
8269;DHT22;4174;48.304;16.364;2023-02-15T03:41:04;5.60;99.90
8269;DHT22;4174;48.304;16.364;2023-02-15T03:47:14;5.60;99.90
8269;DHT22;4174;48.304;16.364;2023-02-15T03:53:17;5.70;99.90
8269;DHT22;4174;48.304;16.364;2023-02-15T03:59:18;5.60;99.90
8269;DHT22;4174;48.304;16.364;2023-02-15T04:05:28;5.60;99.90
8269;DHT22;4174;48.304;16.364;2023-02-15T04:11:31;5.60;99.90
8269;DHT22;4174;48.304;16.364;2023-02-15T04:17:35;5.60;99.90
8269;DHT22;4174;48.304;16.364;2023-02-15T04:23:37;5.60;99.90
8269;DHT22;4174;48.304;16.364;2023-02-15T04:29:48;5.50;99.90
8269;DHT22;4174;48.304;16.364;2023-02-15T04:35:52;5.50;99.90
8269;DHT22;4174;48.304;16.364;2023-02-15T04:41:56;5.50;99.90
8269;DHT22;4174;48.304;16.364;2023-02-15T04:48:00;5.50;99.90
8269;DHT22;4174;48.304;16.364;2023-02-15T04:54:03;5.50;99.90
8269;DHT22;4174;48.304;16.364;2023-02-15T05:00:08;5.50;99.90
8269;DHT22;4174;48.304;16.364;2023-02-15T05:06:12;5.60;99.90
8269;DHT22;4174;48.304;16.364;2023-02-15T05:12:16;5.70;99.90
8269;DHT22;4174;48.304;16.364;2023-02-15T05:18:20;5.70;99.90
8269;DHT22;4174;48.304;16.364;2023-02-15T05:24:22;5.60;99.90
8269;DHT22;4174;48.304;16.364;2023-02-15T05:30:31;5.60;99.90
8269;DHT22;4174;48.304;16.364;2023-02-15T05:36:33;5.40;99.90
8269;DHT22;4174;48.304;16.364;2023-02-15T05:42:37;5.30;99.90
8269;DHT22;4174;48.304;16.364;2023-02-15T05:48:41;5.40;99.90
8269;DHT22;4174;48.304;16.364;2023-02-15T05:54:48;5.50;99.90
8269;DHT22;4174;48.304;16.364;2023-02-15T06:00:51;5.40;99.90
8269;DHT22;4174;48.304;16.364;2023-02-15T06:06:55;5.30;99.90
8269;DHT22;4174;48.304;16.364;2023-02-15T06:12:58;5.20;99.90
8269;DHT22;4174;48.304;16.364;2023-02-15T06:19:02;5.20;99.90
8269;DHT22;4174;48.304;16.364;2023-02-15T06:25:06;5.00;99.90
8269;DHT22;4174;48.304;16.364;2023-02-15T06:31:10;5.10;99.90
8269;DHT22;4174;48.304;16.364;2023-02-15T06:37:14;5.10;99.90
8269;DHT22;4174;48.304;16.364;2023-02-15T06:43:20;5.20;99.90
8269;DHT22;4174;48.304;16.364;2023-02-15T06:49:24;5.10;99.90
8269;DHT22;4174;48.304;16.364;2023-02-15T06:55:28;5.10;99.90
8269;DHT22;4174;48.304;16.364;2023-02-15T07:01:31;5.10;99.90
8269;DHT22;4174;48.304;16.364;2023-02-15T07:07:35;5.20;99.90
8269;DHT22;4174;48.304;16.364;2023-02-15T07:13:39;5.40;99.90
8269;DHT22;4174;48.304;16.364;2023-02-15T07:19:42;5.50;99.90
8269;DHT22;4174;48.304;16.364;2023-02-15T07:25:45;5.50;99.90
8269;DHT22;4174;48.304;16.364;2023-02-15T07:31:49;5.30;99.90
8269;DHT22;4174;48.304;16.364;2023-02-15T07:37:53;5.30;99.90
8269;DHT22;4174;48.304;16.364;2023-02-15T07:43:55;5.20;99.90
8269;DHT22;4174;48.304;16.364;2023-02-15T07:50:00;5.30;99.90
8269;DHT22;4174;48.304;16.364;2023-02-15T07:56:07;5.30;99.90
8269;DHT22;4174;48.304;16.364;2023-02-15T08:02:10;5.60;99.90
8269;DHT22;4174;48.304;16.364;2023-02-15T08:08:13;5.60;99.90
8269;DHT22;4174;48.304;16.364;2023-02-15T08:14:22;5.70;99.90
8269;DHT22;4174;48.304;16.364;2023-02-15T08:20:27;5.70;99.90
8269;DHT22;4174;48.304;16.364;2023-02-15T08:26:31;5.90;99.90
8269;DHT22;4174;48.304;16.364;2023-02-15T08:32:34;5.90;99.90
8269;DHT22;4174;48.304;16.364;2023-02-15T08:38:38;5.90;99.90
8269;DHT22;4174;48.304;16.364;2023-02-15T08:44:41;6.00;99.90
8269;DHT22;4174;48.304;16.364;2023-02-15T08:50:44;5.90;99.90
8269;DHT22;4174;48.304;16.364;2023-02-15T08:56:49;5.90;99.90
8269;DHT22;4174;48.304;16.364;2023-02-15T09:02:52;5.90;99.90
8269;DHT22;4174;48.304;16.364;2023-02-15T09:08:56;5.40;99.90
8269;DHT22;4174;48.304;16.364;2023-02-15T09:14:59;5.70;99.90
8269;DHT22;4174;48.304;16.364;2023-02-15T09:21:06;6.00;99.90
8269;DHT22;4174;48.304;16.364;2023-02-15T09:27:10;6.30;99.90
8269;DHT22;4174;48.304;16.364;2023-02-15T09:33:15;6.50;99.90
8269;DHT22;4174;48.304;16.364;2023-02-15T09:39:20;6.50;99.90
8269;DHT22;4174;48.304;16.364;2023-02-15T09:45:30;6.40;99.90
8269;DHT22;4174;48.304;16.364;2023-02-15T09:51:42;6.10;99.90
8269;DHT22;4174;48.304;16.364;2023-02-15T09:57:58;6.10;99.90
8269;DHT22;4174;48.304;16.364;2023-02-15T10:04:09;6.30;99.90
8269;DHT22;4174;48.304;16.364;2023-02-15T10:10:25;6.30;99.90
8269;DHT22;4174;48.304;16.364;2023-02-15T10:16:52;6.30;99.90
8269;DHT22;4174;48.304;16.364;2023-02-15T10:29:35;6.30;99.90
8269;DHT22;4174;48.304;16.364;2023-02-15T10:42:11;6.60;99.90
8269;DHT22;4174;48.304;16.364;2023-02-15T10:48:37;6.70;99.90
8269;DHT22;4174;48.304;16.364;2023-02-15T10:55:34;6.70;99.90
8269;DHT22;4174;48.304;16.364;2023-02-15T11:01:19;6.70;99.90
8269;DHT22;4174;48.304;16.364;2023-02-15T11:07:38;7.00;99.90
8269;DHT22;4174;48.304;16.364;2023-02-15T11:13:41;7.10;99.90
8269;DHT22;4174;48.304;16.364;2023-02-15T11:20:14;7.00;99.90
8269;DHT22;4174;48.304;16.364;2023-02-15T11:26:33;7.00;99.90
8269;DHT22;4174;48.304;16.364;2023-02-15T11:32:39;7.60;99.90
8269;DHT22;4174;48.304;16.364;2023-02-15T11:38:42;7.70;99.90
8269;DHT22;4174;48.304;16.364;2023-02-15T11:44:55;7.90;99.90
8269;DHT22;4174;48.304;16.364;2023-02-15T11:50:57;7.50;99.90
8269;DHT22;4174;48.304;16.364;2023-02-15T11:57:03;7.50;99.90
8269;DHT22;4174;48.304;16.364;2023-02-15T12:03:09;6.70;99.90
8269;DHT22;4174;48.304;16.364;2023-02-15T12:09:32;7.20;99.90
8269;DHT22;4174;48.304;16.364;2023-02-15T12:15:40;9.40;99.90
8269;DHT22;4174;48.304;16.364;2023-02-15T12:21:41;9.40;99.90
8269;DHT22;4174;48.304;16.364;2023-02-15T12:27:45;9.40;99.90
8269;DHT22;4174;48.304;16.364;2023-02-15T12:33:47;9.00;99.90
8269;DHT22;4174;48.304;16.364;2023-02-15T12:39:55;9.30;99.90
8269;DHT22;4174;48.304;16.364;2023-02-15T12:46:19;9.30;99.90
8269;DHT22;4174;48.304;16.364;2023-02-15T12:52:25;9.40;99.90
8269;DHT22;4174;48.304;16.364;2023-02-15T12:58:30;9.40;99.90
8269;DHT22;4174;48.304;16.364;2023-02-15T13:04:33;10.00;99.90
8269;DHT22;4174;48.304;16.364;2023-02-15T13:10:43;10.00;99.90
8269;DHT22;4174;48.304;16.364;2023-02-15T13:16:45;10.10;99.90
8269;DHT22;4174;48.304;16.364;2023-02-15T13:22:46;10.10;99.90
8269;DHT22;4174;48.304;16.364;2023-02-15T13:28:51;9.50;99.90
8269;DHT22;4174;48.304;16.364;2023-02-15T13:34:56;9.90;99.90
8269;DHT22;4174;48.304;16.364;2023-02-15T13:41:00;9.90;99.90
8269;DHT22;4174;48.304;16.364;2023-02-15T13:47:09;10.10;99.90
8269;DHT22;4174;48.304;16.364;2023-02-15T13:53:20;9.60;99.90
8269;DHT22;4174;48.304;16.364;2023-02-15T14:00:03;9.60;99.90
8269;DHT22;4174;48.304;16.364;2023-02-15T14:06:14;9.60;99.90
8269;DHT22;4174;48.304;16.364;2023-02-15T14:12:26;9.70;99.90
8269;DHT22;4174;48.304;16.364;2023-02-15T14:18:41;9.30;99.90
8269;DHT22;4174;48.304;16.364;2023-02-15T14:24:46;9.40;99.90
8269;DHT22;4174;48.304;16.364;2023-02-15T14:30:52;9.60;99.90
8269;DHT22;4174;48.304;16.364;2023-02-15T14:36:55;8.70;99.90
8269;DHT22;4174;48.304;16.364;2023-02-15T14:49:23;8.80;99.90
8269;DHT22;4174;48.304;16.364;2023-02-15T14:55:35;8.40;99.90
8269;DHT22;4174;48.304;16.364;2023-02-15T15:01:37;8.70;99.90
8269;DHT22;4174;48.304;16.364;2023-02-15T15:07:43;8.60;99.90
8269;DHT22;4174;48.304;16.364;2023-02-15T15:13:52;8.20;99.90
8269;DHT22;4174;48.304;16.364;2023-02-15T15:19:57;8.10;99.90
8269;DHT22;4174;48.304;16.364;2023-02-15T15:32:27;7.70;99.90
8269;DHT22;4174;48.304;16.364;2023-02-15T15:46:24;6.60;99.90
8269;DHT22;4174;48.304;16.364;2023-02-15T15:51:38;5.90;99.90
8269;DHT22;4174;48.304;16.364;2023-02-15T15:57:40;5.90;99.90
8269;DHT22;4174;48.304;16.364;2023-02-15T16:03:49;5.70;99.90
8269;DHT22;4174;48.304;16.364;2023-02-15T16:10:03;5.60;99.90
8269;DHT22;4174;48.304;16.364;2023-02-15T16:16:08;5.30;99.90
8269;DHT22;4174;48.304;16.364;2023-02-15T16:22:21;5.20;99.90
8269;DHT22;4174;48.304;16.364;2023-02-15T16:28:26;5.20;99.90
8269;DHT22;4174;48.304;16.364;2023-02-15T16:34:29;5.00;99.90
8269;DHT22;4174;48.304;16.364;2023-02-15T16:40:47;4.60;99.90
8269;DHT22;4174;48.304;16.364;2023-02-15T16:46:55;4.60;99.90
8269;DHT22;4174;48.304;16.364;2023-02-15T16:52:58;4.60;99.90
8269;DHT22;4174;48.304;16.364;2023-02-15T16:59:01;4.40;99.90
8269;DHT22;4174;48.304;16.364;2023-02-15T17:05:13;4.30;99.90
8269;DHT22;4174;48.304;16.364;2023-02-15T17:11:20;4.30;99.90
8269;DHT22;4174;48.304;16.364;2023-02-15T17:17:23;4.30;99.90
8269;DHT22;4174;48.304;16.364;2023-02-15T17:23:30;4.30;99.90
8269;DHT22;4174;48.304;16.364;2023-02-15T17:29:36;4.30;99.90
8269;DHT22;4174;48.304;16.364;2023-02-15T17:35:39;4.20;99.90
8269;DHT22;4174;48.304;16.364;2023-02-15T17:41:42;4.20;99.90
8269;DHT22;4174;48.304;16.364;2023-02-15T17:47:46;4.30;99.90
8269;DHT22;4174;48.304;16.364;2023-02-15T17:53:49;4.00;99.90
8269;DHT22;4174;48.304;16.364;2023-02-15T17:59:58;3.90;99.90
8269;DHT22;4174;48.304;16.364;2023-02-15T18:06:07;3.80;99.90
8269;DHT22;4174;48.304;16.364;2023-02-15T18:12:26;3.80;99.90
8269;DHT22;4174;48.304;16.364;2023-02-15T18:18:30;3.80;99.90
8269;DHT22;4174;48.304;16.364;2023-02-15T18:24:33;3.70;99.90
8269;DHT22;4174;48.304;16.364;2023-02-15T18:30:38;3.60;99.90
8269;DHT22;4174;48.304;16.364;2023-02-15T18:36:42;3.50;99.90
8269;DHT22;4174;48.304;16.364;2023-02-15T18:42:44;3.40;99.90
8269;DHT22;4174;48.304;16.364;2023-02-15T18:48:47;3.40;99.90
8269;DHT22;4174;48.304;16.364;2023-02-15T18:54:52;3.30;99.90
8269;DHT22;4174;48.304;16.364;2023-02-15T19:00:54;3.20;99.90
8269;DHT22;4174;48.304;16.364;2023-02-15T19:06:58;3.10;99.90
8269;DHT22;4174;48.304;16.364;2023-02-15T19:13:01;3.00;99.90
8269;DHT22;4174;48.304;16.364;2023-02-15T19:19:06;2.90;99.90
8269;DHT22;4174;48.304;16.364;2023-02-15T19:25:12;2.80;99.90
8269;DHT22;4174;48.304;16.364;2023-02-15T19:31:11;2.70;99.90
8269;DHT22;4174;48.304;16.364;2023-02-15T19:43:38;2.60;99.90
8269;DHT22;4174;48.304;16.364;2023-02-15T19:49:43;2.50;99.90
8269;DHT22;4174;48.304;16.364;2023-02-15T19:55:46;2.40;99.90
8269;DHT22;4174;48.304;16.364;2023-02-15T20:01:49;2.40;99.90
8269;DHT22;4174;48.304;16.364;2023-02-15T20:07:52;2.30;99.90
8269;DHT22;4174;48.304;16.364;2023-02-15T20:13:55;2.30;99.90
8269;DHT22;4174;48.304;16.364;2023-02-15T20:19:59;2.30;99.90
8269;DHT22;4174;48.304;16.364;2023-02-15T20:26:14;2.20;99.90
8269;DHT22;4174;48.304;16.364;2023-02-15T20:32:16;2.20;99.90
8269;DHT22;4174;48.304;16.364;2023-02-15T20:38:23;2.10;99.90
8269;DHT22;4174;48.304;16.364;2023-02-15T20:44:27;2.10;99.90
8269;DHT22;4174;48.304;16.364;2023-02-15T20:50:29;2.00;99.90
8269;DHT22;4174;48.304;16.364;2023-02-15T20:56:32;2.20;99.90
8269;DHT22;4174;48.304;16.364;2023-02-15T21:02:35;2.20;99.90
8269;DHT22;4174;48.304;16.364;2023-02-15T21:08:40;2.40;99.90
8269;DHT22;4174;48.304;16.364;2023-02-15T21:14:43;2.30;99.90
8269;DHT22;4174;48.304;16.364;2023-02-15T21:20:48;2.30;99.90
8269;DHT22;4174;48.304;16.364;2023-02-15T21:26:51;2.30;99.90
8269;DHT22;4174;48.304;16.364;2023-02-15T21:32:53;2.20;99.90
8269;DHT22;4174;48.304;16.364;2023-02-15T21:38:57;2.10;99.90
8269;DHT22;4174;48.304;16.364;2023-02-15T21:45:00;2.00;99.90
8269;DHT22;4174;48.304;16.364;2023-02-15T21:51:09;2.00;99.90
8269;DHT22;4174;48.304;16.364;2023-02-15T21:57:18;1.90;99.90
8269;DHT22;4174;48.304;16.364;2023-02-15T22:03:22;1.90;99.90
8269;DHT22;4174;48.304;16.364;2023-02-15T22:09:25;1.80;99.90
8269;DHT22;4174;48.304;16.364;2023-02-15T22:15:29;1.70;99.90
8269;DHT22;4174;48.304;16.364;2023-02-15T22:21:30;1.70;99.90
8269;DHT22;4174;48.304;16.364;2023-02-15T22:27:34;1.60;99.90
8269;DHT22;4174;48.304;16.364;2023-02-15T22:33:36;1.50;99.90
8269;DHT22;4174;48.304;16.364;2023-02-15T22:39:40;1.50;99.90
8269;DHT22;4174;48.304;16.364;2023-02-15T22:45:44;1.40;99.90
8269;DHT22;4174;48.304;16.364;2023-02-15T22:51:48;1.40;99.90
8269;DHT22;4174;48.304;16.364;2023-02-15T22:57:52;1.40;99.90
8269;DHT22;4174;48.304;16.364;2023-02-15T23:03:54;1.40;99.90
8269;DHT22;4174;48.304;16.364;2023-02-15T23:09:57;1.40;99.90
8269;DHT22;4174;48.304;16.364;2023-02-15T23:16:03;1.40;99.90
8269;DHT22;4174;48.304;16.364;2023-02-15T23:22:04;1.30;99.90
8269;DHT22;4174;48.304;16.364;2023-02-15T23:28:16;1.30;99.90
8269;DHT22;4174;48.304;16.364;2023-02-15T23:34:20;1.30;99.90
8269;DHT22;4174;48.304;16.364;2023-02-15T23:40:21;1.20;99.90
8269;DHT22;4174;48.304;16.364;2023-02-15T23:46:42;1.10;99.90
8269;DHT22;4174;48.304;16.364;2023-02-15T23:52:44;1.10;99.90
8269;DHT22;4174;48.304;16.364;2023-02-15T23:58:48;1.10;99.90
